Time;durP1;ratioP1;P1;durP2;ratioP2;P2;SDS_P1;SDS_P2;PMS_P1;PMS_P2;Temp;Humidity;BMP_temperature;BMP_pressure;BME280_temperature;BME280_humidity;BME280_pressure;Samples;Min_cycle;Max_cycle;Signal;HPM_P1;HPM_P2
2022/12/07 00:01:13;;;;;;;15.77;12.55;;;8.10;94.70;;;;;;6214940;23;20000;-76
2022/12/07 00:03:41;;;;;;;20.58;14.23;;;8.00;94.60;;;;;;6214837;23;20080;-76
2022/12/07 00:06:08;;;;;;;16.42;12.35;;;8.10;94.70;;;;;;6215268;23;20127;-76
2022/12/07 00:08:34;;;;;;;19.63;13.88;;;8.00;94.60;;;;;;6214633;23;20051;-76
2022/12/07 00:11:09;;;;;;;20.63;14.70;;;8.00;94.60;;;;;;6212955;23;20000;-76
2022/12/07 00:13:36;;;;;;;16.65;12.63;;;8.00;94.30;;;;;;6188065;23;20646;-78
2022/12/07 00:16:10;;;;;;;16.83;13.05;;;8.00;94.50;;;;;;6215276;23;20013;-78
2022/12/07 00:18:36;;;;;;;17.95;12.63;;;;;;;;;;6215310;23;20000;-79
2022/12/07 00:21:09;;;;;;;18.25;13.13;;;7.90;94.50;;;;;;6212416;23;20009;-78
2022/12/07 00:23:35;;;;;;;19.02;15.02;;;7.90;94.70;;;;;;6211910;23;20012;-79
2022/12/07 00:26:11;;;;;;;31.52;19.30;;;7.70;94.50;;;;;;6214569;23;20340;-79
2022/12/07 00:28:37;;;;;;;16.73;12.93;;;7.30;94.50;;;;;;6213710;23;20011;-79
2022/12/07 00:31:08;;;;;;;16.95;13.05;;;7.30;95.30;;;;;;6214068;23;20000;-78
2022/12/07 00:33:35;;;;;;;21.20;14.25;;;7.40;95.20;;;;;;6214947;23;20073;-79
2022/12/07 00:36:04;;;;;;;18.85;12.98;;;7.40;95.10;;;;;;6214535;23;20531;-78
2022/12/07 00:38:32;;;;;;;19.85;14.68;;;7.40;95.10;;;;;;6214447;23;20312;-78
2022/12/07 00:40:59;;;;;;;17.95;13.45;;;7.50;95.30;;;;;;6214819;23;20054;-78
2022/12/07 00:43:25;;;;;;;16.60;12.50;;;7.50;95.10;;;;;;6215017;23;20004;-78
2022/12/07 00:45:51;;;;;;;18.50;14.60;;;7.60;94.90;;;;;;6214838;23;20004;-77
2022/12/07 00:48:17;;;;;;;19.23;14.52;;;7.60;94.90;;;;;;6215135;23;20019;-79
2022/12/07 00:50:43;;;;;;;17.05;12.60;;;;;;;;;;6215039;23;20001;-78
2022/12/07 00:53:09;;;;;;;17.75;12.82;;;7.60;94.80;;;;;;6214216;23;20004;-79
2022/12/07 00:55:35;;;;;;;16.23;12.68;;;7.50;94.90;;;;;;6213989;23;20450;-79
2022/12/07 00:58:02;;;;;;;16.08;12.60;;;7.60;95.00;;;;;;6214862;23;20004;-80
2022/12/07 01:00:28;;;;;;;15.77;12.48;;;7.60;95.00;;;;;;6214244;23;20062;-78
2022/12/07 01:02:54;;;;;;;16.73;13.57;;;7.70;94.90;;;;;;6215446;23;20292;-79
2022/12/07 01:05:19;;;;;;;17.00;12.85;;;7.60;94.50;;;;;;6214499;23;20001;-77
2022/12/07 01:07:46;;;;;;;18.88;15.07;;;7.60;94.90;;;;;;6214970;23;20005;-79
2022/12/07 01:10:13;;;;;;;19.65;11.93;;;7.60;94.70;;;;;;6214010;23;20003;-79
2022/12/07 01:12:39;;;;;;;14.07;11.15;;;7.60;94.80;;;;;;6214976;23;20410;-78
2022/12/07 01:15:05;;;;;;;14.60;11.88;;;7.60;94.60;;;;;;6215031;23;20000;-79
2022/12/07 01:17:31;;;;;;;13.57;11.18;;;7.70;94.70;;;;;;6214317;23;20043;-78
2022/12/07 01:19:57;;;;;;;14.70;10.88;;;7.70;94.80;;;;;;6188510;23;20005;-78
2022/12/07 01:22:23;;;;;;;16.23;12.90;;;7.70;94.80;;;;;;6214596;23;20015;-79
2022/12/07 01:24:48;;;;;;;14.32;11.65;;;7.70;94.60;;;;;;6188545;23;20115;-78
2022/12/07 01:27:14;;;;;;;14.43;11.38;;;7.70;94.70;;;;;;6214663;23;20373;-78
2022/12/07 01:29:40;;;;;;;18.27;13.30;;;7.70;94.70;;;;;;6215423;23;20024;-78
2022/12/07 01:32:06;;;;;;;14.13;10.93;;;7.70;94.70;;;;;;6213761;23;20028;-78
2022/12/07 01:34:32;;;;;;;13.18;10.85;;;7.70;94.60;;;;;;6214073;23;20004;-77
2022/12/07 01:36:58;;;;;;;14.93;11.90;;;7.80;94.70;;;;;;6215684;23;19996;-77
2022/12/07 01:39:24;;;;;;;13.68;11.68;;;7.70;94.40;;;;;;6214545;23;20008;-78
2022/12/07 01:41:51;;;;;;;14.43;11.40;;;7.80;94.60;;;;;;6214572;23;20019;-78
2022/12/07 01:44:26;;;;;;;13.65;10.82;;;7.80;94.50;;;;;;6187955;23;20009;-77
2022/12/07 01:46:59;;;;;;;13.35;11.48;;;7.90;94.50;;;;;;6214587;23;20004;-77
2022/12/07 01:49:42;;;;;;;14.60;11.77;;;7.80;94.30;;;;;;6214628;23;20411;-77
2022/12/07 01:52:25;;;;;;;14.95;12.18;;;7.80;94.40;;;;;;6214172;23;20028;-78
2022/12/07 01:54:56;;;;;;;16.13;13.07;;;7.70;94.40;;;;;;6214821;23;20304;-77
2022/12/07 01:57:23;;;;;;;14.27;11.80;;;7.60;94.50;;;;;;6214969;23;20011;-80
2022/12/07 01:59:50;;;;;;;13.68;10.90;;;7.70;94.50;;;;;;6214963;23;20001;-77
2022/12/07 02:02:31;;;;;;;13.63;11.25;;;7.70;94.50;;;;;;6213455;23;20016;-79
2022/12/07 02:04:59;;;;;;;15.95;12.50;;;7.80;94.50;;;;;;6215046;23;20051;-78
2022/12/07 02:07:26;;;;;;;13.63;11.02;;;7.80;94.30;;;;;;6213945;23;20087;-78
2022/12/07 02:09:52;;;;;;;17.67;14.13;;;7.80;94.40;;;;;;6213667;23;20009;-78
2022/12/07 02:12:19;;;;;;;16.90;12.13;;;7.60;94.10;;;;;;6212203;23;20304;-77
2022/12/07 02:14:45;;;;;;;13.90;11.52;;;7.50;94.40;;;;;;6214449;23;20031;-78
2022/12/07 02:17:37;;;;;;;15.57;11.27;;;7.40;94.70;;;;;;6214194;23;20016;-78
2022/12/07 02:20:23;;;;;;;12.88;10.57;;;7.50;94.60;;;;;;6214695;23;20366;-78
2022/12/07 02:22:48;;;;;;;14.50;11.75;;;7.60;94.60;;;;;;6214381;23;20438;-78
2022/12/07 02:25:22;;;;;;;14.68;11.52;;;7.60;94.60;;;;;;6214352;23;20005;-78
2022/12/07 02:28:32;;;;;;;13.38;11.05;;;7.60;94.60;;;;;;6213805;23;20080;-78
2022/12/07 02:31:05;;;;;;;13.02;11.65;;;7.70;94.40;;;;;;6143134;23;20009;-79
2022/12/07 02:34:11;;;;;;;15.60;12.50;;;7.70;94.20;;;;;;6214765;23;20011;-78
2022/12/07 02:36:45;;;;;;;19.30;13.80;;;7.70;94.10;;;;;;6140289;23;20005;-78
2022/12/07 02:39:24;;;;;;;11.90;10.45;;;7.50;94.20;;;;;;6213332;23;20015;-78
2022/12/07 02:41:55;;;;;;;15.02;10.82;;;7.50;94.40;;;;;;6214380;23;20096;-79
2022/12/07 02:44:25;;;;;;;14.55;11.43;;;7.60;94.40;;;;;;6216445;23;20059;-79
2022/12/07 02:47:07;;;;;;;12.85;10.45;;;7.60;94.10;;;;;;6215969;23;20067;-78
2022/12/07 02:49:35;;;;;;;13.25;9.95;;;7.60;94.20;;;;;;6215597;23;20054;-78
2022/12/07 02:52:01;;;;;;;15.82;10.95;;;7.50;94.20;;;;;;6215784;23;20023;-79
2022/12/07 02:54:26;;;;;;;14.20;10.68;;;7.60;94.30;;;;;;6189294;23;20332;-78
2022/12/07 02:57:01;;;;;;;14.75;11.23;;;7.60;94.30;;;;;;6215986;23;20428;-78
2022/12/07 03:00:01;;;;;;;14.90;11.77;;;7.60;94.10;;;;;;6215793;23;20011;-78
2022/12/07 03:02:29;;;;;;;13.68;10.32;;;7.60;94.10;;;;;;6211435;23;20044;-78
2022/12/07 03:05:20;;;;;;;11.98;10.18;;;7.50;94.00;;;;;;6215908;23;20039;-79
2022/12/07 03:08:07;;;;;;;13.23;9.82;;;7.50;94.10;;;;;;6215793;23;20011;-79
2022/12/07 03:10:36;;;;;;;12.43;10.30;;;7.40;94.20;;;;;;6216037;23;20008;-79
2022/12/07 03:13:32;;;;;;;13.45;10.77;;;7.30;94.20;;;;;;6216502;23;20007;-79
2022/12/07 03:16:11;;;;;;;11.88;9.75;;;7.30;94.20;;;;;;6215930;23;20320;-78
2022/12/07 03:18:42;;;;;;;15.50;12.30;;;7.30;94.20;;;;;;6215713;23;20478;-78
2022/12/07 03:21:14;;;;;;;13.73;10.75;;;7.30;94.10;;;;;;6215993;23;20028;-78
2022/12/07 03:23:44;;;;;;;13.70;11.75;;;7.30;94.10;;;;;;6215696;23;20059;-78
2022/12/07 03:26:14;;;;;;;12.77;9.97;;;7.20;94.00;;;;;;6215995;23;20493;-78
2022/12/07 03:28:46;;;;;;;18.27;11.68;;;7.20;94.00;;;;;;6215639;23;20015;-78
2022/12/07 03:31:21;;;;;;;17.23;9.95;;;7.20;94.10;;;;;;6216059;23;20011;-78
2022/12/07 03:33:54;;;;;;;13.45;9.45;;;7.20;94.00;;;;;;6215876;23;20005;-77
2022/12/07 03:36:45;;;;;;;11.93;9.63;;;7.20;93.80;;;;;;6215045;23;20001;-77
2022/12/07 03:39:26;;;;;;;13.35;10.73;;;7.10;93.90;;;;;;6214739;23;20074;-78
2022/12/07 03:41:53;;;;;;;11.50;9.73;;;7.10;93.80;;;;;;6215392;23;20008;-78
2022/12/07 03:44:19;;;;;;;12.77;9.80;;;7.20;93.90;;;;;;6215349;23;20092;-77
2022/12/07 03:46:59;;;;;;;12.68;9.68;;;7.20;93.70;;;;;;6215295;23;20449;-76
2022/12/07 03:49:36;;;;;;;12.25;10.02;;;7.20;93.60;;;;;;6214267;23;20104;-77
2022/12/07 03:52:30;;;;;;;11.73;9.23;;;7.10;93.20;;;;;;6215129;23;20420;-78
2022/12/07 03:55:14;;;;;;;12.30;9.88;;;7.10;93.40;;;;;;6215204;23;20051;-77
2022/12/07 03:57:42;;;;;;;11.45;8.70;;;7.00;93.20;;;;;;6214761;23;20008;-77
2022/12/07 04:00:09;;;;;;;13.60;9.85;;;7.00;93.30;;;;;;6214519;23;20100;-78
2022/12/07 04:02:36;;;;;;;10.65;9.00;;;6.90;93.30;;;;;;6215053;23;20309;-78
2022/12/07 04:05:02;;;;;;;13.85;10.75;;;6.90;93.50;;;;;;6215278;23;20000;-77
2022/12/07 04:07:28;;;;;;;12.75;8.98;;;6.90;93.20;;;;;;6215013;23;20005;-77
2022/12/07 04:09:54;;;;;;;12.57;10.27;;;6.90;93.20;;;;;;6215024;23;20303;-77
2022/12/07 04:12:21;;;;;;;10.95;8.70;;;6.90;93.30;;;;;;6214903;23;20328;-78
2022/12/07 04:14:47;;;;;;;10.75;8.38;;;6.90;93.00;;;;;;6214694;23;20011;-78
2022/12/07 04:17:12;;;;;;;11.32;9.27;;;6.80;93.00;;;;;;6214584;23;20087;-78
2022/12/07 04:19:38;;;;;;;10.82;8.50;;;6.80;93.10;;;;;;6214663;23;20080;-78
2022/12/07 04:22:05;;;;;;;9.75;8.32;;;6.70;92.90;;;;;;6215136;23;20071;-77
2022/12/07 04:24:32;;;;;;;11.32;8.07;;;6.80;93.10;;;;;;6215199;23;20005;-77
2022/12/07 04:26:58;;;;;;;11.95;8.57;;;6.80;93.00;;;;;;6214184;23;20519;-78
2022/12/07 04:29:24;;;;;;;8.57;7.65;;;6.80;93.00;;;;;;6214797;23;19996;-78
2022/12/07 04:31:50;;;;;;;14.40;10.45;;;6.70;92.90;;;;;;6214624;23;20008;-78
2022/12/07 04:34:17;;;;;;;11.02;8.52;;;6.70;92.70;;;;;;6215035;23;20001;-78
2022/12/07 04:36:44;;;;;;;10.57;7.93;;;6.50;92.70;;;;;;6215121;23;20004;-78
2022/12/07 04:39:23;;;;;;;9.95;7.60;;;6.50;92.90;;;;;;6215010;23;20415;-77
2022/12/07 04:41:48;;;;;;;11.07;7.93;;;6.50;93.00;;;;;;6188791;23;20008;-77
2022/12/07 04:44:15;;;;;;;11.77;8.25;;;6.50;93.00;;;;;;6215383;23;20000;-77
2022/12/07 04:46:41;;;;;;;9.98;7.68;;;6.50;93.00;;;;;;6214819;23;20001;-77
2022/12/07 04:49:07;;;;;;;14.23;9.93;;;6.60;92.90;;;;;;6214387;23;20007;-77
2022/12/07 04:51:33;;;;;;;11.65;8.45;;;6.60;92.70;;;;;;6214657;23;20001;-77
2022/12/07 04:53:59;;;;;;;13.07;8.48;;;6.60;92.80;;;;;;6215400;23;20071;-77
2022/12/07 04:56:25;;;;;;;10.80;7.95;;;6.60;92.80;;;;;;6214653;23;20003;-77
2022/12/07 04:58:53;;;;;;;10.57;7.28;;;6.60;92.70;;;;;;6214287;23;20005;-77
2022/12/07 05:01:19;;;;;;;10.60;8.00;;;6.60;92.70;;;;;;6214509;23;20005;-78
2022/12/07 05:03:45;;;;;;;12.55;8.07;;;6.60;92.70;;;;;;6214991;23;20007;-77
2022/12/07 05:06:11;;;;;;;10.38;7.75;;;6.60;92.60;;;;;;6214208;23;20001;-77
2022/12/07 05:08:37;;;;;;;10.20;7.55;;;6.60;92.60;;;;;;6214232;23;20011;-78
2022/12/07 05:11:05;;;;;;;12.38;8.50;;;6.60;92.70;;;;;;6214731;23;20080;-78
2022/12/07 05:13:32;;;;;;;11.05;7.22;;;6.60;92.40;;;;;;6215162;23;20011;-78
2022/12/07 05:15:57;;;;;;;9.15;7.40;;;6.60;92.40;;;;;;6214587;23;20376;-78
2022/12/07 05:18:23;;;;;;;11.38;7.60;;;6.60;92.50;;;;;;6214616;23;20012;-78
2022/12/07 05:20:50;;;;;;;10.88;7.07;;;6.50;92.50;;;;;;6188338;23;20496;-77
2022/12/07 05:23:17;;;;;;;10.52;7.72;;;6.60;92.50;;;;;;6215166;23;20004;-78
2022/12/07 05:25:42;;;;;;;9.07;6.93;;;6.60;92.40;;;;;;6187993;23;20012;-77
2022/12/07 05:28:08;;;;;;;9.68;7.22;;;6.60;92.50;;;;;;6214472;23;20004;-78
2022/12/07 05:30:34;;;;;;;9.90;6.63;;;6.60;92.40;;;;;;6214640;23;20009;-79
2022/12/07 05:33:00;;;;;;;8.65;6.68;;;6.50;92.30;;;;;;6214452;23;20009;-78
2022/12/07 05:35:26;;;;;;;10.10;7.70;;;6.50;92.40;;;;;;6213190;23;19997;-80
2022/12/07 05:37:51;;;;;;;10.43;7.70;;;6.60;92.40;;;;;;6214070;23;20012;-77
2022/12/07 05:40:18;;;;;;;11.63;8.25;;;6.60;92.40;;;;;;6213790;23;20070;-78
2022/12/07 05:42:44;;;;;;;10.07;7.43;;;6.70;92.50;;;;;;6187720;23;20009;-79
2022/12/07 05:45:10;;;;;;;10.32;7.63;;;6.70;92.30;;;;;;6214243;23;20025;-78
2022/12/07 05:47:36;;;;;;;10.48;7.45;;;6.70;92.10;;;;;;6213304;23;20008;-78
2022/12/07 05:50:03;;;;;;;9.75;7.25;;;6.60;91.70;;;;;;6213821;23;19997;-81
2022/12/07 05:52:29;;;;;;;11.82;7.88;;;6.50;91.80;;;;;;6214467;23;20004;-81
2022/12/07 05:54:54;;;;;;;10.40;7.28;;;6.50;92.00;;;;;;6214826;23;19997;-81
2022/12/07 05:57:20;;;;;;;17.55;9.30;;;6.40;92.00;;;;;;6214564;23;20324;-82
2022/12/07 05:59:46;;;;;;;11.95;7.88;;;6.30;92.00;;;;;;6213846;23;20005;-81
2022/12/07 06:02:13;;;;;;;9.35;6.45;;;6.30;92.20;;;;;;6214924;23;20323;-81
2022/12/07 06:04:42;;;;;;;10.27;6.78;;;6.40;92.40;;;;;;6213675;23;20024;-80
2022/12/07 06:07:08;;;;;;;10.00;7.68;;;6.40;92.40;;;;;;6214636;23;20008;-80
2022/12/07 06:09:34;;;;;;;11.75;7.35;;;;;;;;;;6213758;23;20072;-81
2022/12/07 06:14:45;;;;;;;10.68;7.35;;;6.40;92.30;;;;;;6214487;23;20085;-80
2022/12/07 06:17:12;;;;;;;11.07;7.75;;;6.40;92.10;;;;;;6214848;23;20039;-80
2022/12/07 06:19:38;;;;;;;8.75;7.05;;;6.40;91.90;;;;;;6214371;23;20009;-81
2022/12/07 06:22:04;;;;;;;9.30;7.57;;;6.40;92.00;;;;;;6214947;23;20097;-81
2022/12/07 06:24:31;;;;;;;12.05;8.45;;;6.40;92.00;;;;;;6216295;23;20005;-81
2022/12/07 06:26:58;;;;;;;12.52;8.98;;;6.30;91.90;;;;;;6215651;23;20025;-80
2022/12/07 06:29:23;;;;;;;13.70;8.65;;;6.20;92.30;;;;;;6216621;23;20350;-78
2022/12/07 06:31:49;;;;;;;13.10;9.27;;;6.20;92.00;;;;;;6216736;23;19997;-82
2022/12/07 06:34:19;;;;;;;9.73;7.10;;;6.10;92.20;;;;;;6216233;23;20451;-81
2022/12/07 06:36:45;;;;;;;9.15;7.18;;;6.20;92.30;;;;;;6216179;23;20050;-81
2022/12/07 06:39:11;;;;;;;9.93;7.60;;;6.20;92.40;;;;;;6215635;23;20439;-82
2022/12/07 06:41:38;;;;;;;10.40;7.65;;;6.30;92.30;;;;;;6216163;23;19997;-86
2022/12/07 06:44:07;;;;;;;9.20;6.82;;;6.40;92.30;;;;;;6215599;23;20308;-83
2022/12/07 06:46:35;;;;;;;13.25;7.82;;;6.40;92.30;;;;;;6215782;23;20005;-79
2022/12/07 06:49:00;;;;;;;9.88;7.22;;;6.50;92.00;;;;;;6216047;23;19996;-77
2022/12/07 06:51:26;;;;;;;9.93;6.68;;;6.50;92.10;;;;;;6215325;23;20003;-76
2022/12/07 06:53:52;;;;;;;8.20;6.97;;;6.50;91.90;;;;;;6216327;23;20005;-76
2022/12/07 06:56:19;;;;;;;12.63;8.23;;;6.50;91.80;;;;;;6215806;23;20399;-78
2022/12/07 06:58:45;;;;;;;9.63;7.68;;;6.50;91.90;;;;;;6215972;23;20011;-78
2022/12/07 07:01:12;;;;;;;9.13;7.60;;;6.50;91.80;;;;;;6215913;23;20075;-77
2022/12/07 07:03:38;;;;;;;11.60;8.10;;;6.50;91.80;;;;;;6216351;23;20065;-78
2022/12/07 07:06:05;;;;;;;9.95;7.63;;;6.50;91.70;;;;;;6216406;23;20403;-78
2022/12/07 07:08:31;;;;;;;11.30;8.45;;;6.40;91.70;;;;;;6216064;23;20012;-77
2022/12/07 07:10:57;;;;;;;10.35;7.72;;;6.40;91.70;;;;;;6216027;23;20004;-77
2022/12/07 07:13:23;;;;;;;10.48;7.38;;;6.50;91.90;;;;;;6216070;23;20084;-77
2022/12/07 07:15:48;;;;;;;12.40;8.20;;;6.50;91.90;;;;;;6212786;23;20060;-78
2022/12/07 07:18:14;;;;;;;9.68;7.90;;;6.50;92.00;;;;;;6189683;23;20009;-79
2022/12/07 07:20:40;;;;;;;13.20;8.48;;;6.40;92.00;;;;;;6216209;23;20035;-76
2022/12/07 07:23:06;;;;;;;11.15;8.18;;;6.50;92.10;;;;;;6215195;23;20001;-75
2022/12/07 07:25:32;;;;;;;9.70;7.10;;;6.40;91.80;;;;;;6215804;23;20008;-76
2022/12/07 07:27:58;;;;;;;14.95;8.10;;;6.40;92.10;;;;;;6187747;23;20016;-81
2022/12/07 07:30:24;;;;;;;13.40;7.90;;;6.30;92.20;;;;;;6215797;23;20000;-79
2022/12/07 07:32:50;;;;;;;11.15;7.57;;;6.40;92.40;;;;;;6215357;23;20293;-77
2022/12/07 07:35:16;;;;;;;11.48;7.70;;;6.40;92.40;;;;;;6215068;23;19997;-77
2022/12/07 07:37:41;;;;;;;10.18;7.18;;;6.50;92.40;;;;;;6213737;23;20009;-76
2022/12/07 07:40:09;;;;;;;13.85;8.73;;;6.60;92.40;;;;;;6215193;23;20062;-77
2022/12/07 07:42:34;;;;;;;11.55;8.05;;;6.60;92.40;;;;;;6215491;23;20515;-75
2022/12/07 07:45:00;;;;;;;10.88;7.90;;;6.60;92.40;;;;;;6215534;23;20028;-78
2022/12/07 07:47:26;;;;;;;10.57;7.80;;;6.60;92.40;;;;;;6215236;23;20026;-77
2022/12/07 07:49:51;;;;;;;11.68;7.72;;;6.70;92.50;;;;;;6215014;23;20031;-79
2022/12/07 07:52:17;;;;;;;12.85;7.72;;;6.70;92.30;;;;;;6213917;23;20000;-78
2022/12/07 07:54:46;;;;;;;13.82;9.48;;;6.70;92.30;;;;;;6190855;23;20021;-83
2022/12/07 07:57:12;;;;;;;11.98;8.10;;;6.80;93.00;;;;;;6196559;23;20009;-83
2022/12/07 07:59:37;;;;;;;10.30;7.65;;;6.80;92.30;;;;;;6215827;23;20007;-83
2022/12/07 08:02:03;;;;;;;11.60;8.50;;;6.90;92.40;;;;;;6215960;23;20419;-83
2022/12/07 08:04:29;;;;;;;12.77;7.95;;;6.90;92.20;;;;;;6215815;23;20016;-83
2022/12/07 08:06:56;;;;;;;11.18;8.20;;;6.90;92.10;;;;;;6214096;23;20058;-81
2022/12/07 08:09:22;;;;;;;12.13;8.63;;;6.90;92.10;;;;;;6214492;23;20000;-81
2022/12/07 08:11:48;;;;;;;11.57;8.00;;;7.00;91.90;;;;;;6215289;23;20004;-82
2022/12/07 08:14:14;;;;;;;9.70;7.65;;;7.00;91.80;;;;;;6188255;23;20331;-82
2022/12/07 08:16:40;;;;;;;12.48;8.35;;;7.10;91.90;;;;;;6214271;23;20008;-82
2022/12/07 08:19:06;;;;;;;12.82;8.63;;;7.10;91.90;;;;;;6215398;23;20387;-82
2022/12/07 08:21:31;;;;;;;17.55;8.82;;;7.20;91.90;;;;;;6214410;23;20005;-83
2022/12/07 08:23:57;;;;;;;10.15;8.25;;;7.20;91.90;;;;;;6214495;23;20403;-82
2022/12/07 08:26:23;;;;;;;11.27;8.15;;;7.30;91.80;;;;;;6214711;23;20343;-82
2022/12/07 08:28:49;;;;;;;11.13;8.68;;;7.40;91.90;;;;;;6215689;23;20029;-82
2022/12/07 08:31:17;;;;;;;15.05;8.88;;;7.50;91.30;;;;;;6214458;23;20398;-82
2022/12/07 08:33:46;;;;;;;14.55;8.43;;;7.50;91.50;;;;;;6215840;23;20001;-82
2022/12/07 08:36:12;;;;;;;13.88;8.10;;;7.60;91.50;;;;;;6213975;23;20000;-82
2022/12/07 08:38:40;;;;;;;10.60;8.23;;;7.70;91.30;;;;;;6214836;23;20070;-83
2022/12/07 08:41:06;;;;;;;13.35;8.93;;;7.80;91.50;;;;;;6214781;23;20071;-82
2022/12/07 08:43:33;;;;;;;10.88;8.20;;;7.90;91.30;;;;;;6188885;23;20461;-83
2022/12/07 08:46:19;;;;;;;12.77;8.52;;;7.90;91.30;;;;;;6215160;23;20067;-82
2022/12/07 08:48:51;;;;;;;11.30;8.20;;;8.00;91.30;;;;;;6215647;23;20005;-82
2022/12/07 08:51:17;;;;;;;17.70;8.38;;;8.10;91.30;;;;;;6215160;23;20003;-80
2022/12/07 08:53:43;;;;;;;14.43;8.80;;;8.20;91.20;;;;;;6215368;23;20072;-82
2022/12/07 08:56:09;;;;;;;12.45;8.57;;;8.30;91.00;;;;;;6215138;23;19997;-83
2022/12/07 08:58:36;;;;;;;12.07;8.85;;;8.30;90.70;;;;;;6214803;23;20027;-82
2022/12/07 09:01:03;;;;;;;10.60;8.13;;;8.30;90.70;;;;;;6214443;23;20005;-82
2022/12/07 09:03:29;;;;;;;11.43;8.00;;;8.40;90.70;;;;;;6214525;23;20010;-80
2022/12/07 09:05:55;;;;;;;9.90;7.60;;;8.40;90.70;;;;;;6187699;23;20339;-81
2022/12/07 09:08:23;;;;;;;14.52;8.75;;;8.50;90.60;;;;;;6215633;23;20004;-82
2022/12/07 09:10:49;;;;;;;10.55;7.45;;;8.60;90.20;;;;;;6214794;23;20000;-82
2022/12/07 09:13:14;;;;;;;9.77;7.05;;;8.50;90.20;;;;;;6215283;23;20050;-81
2022/12/07 09:15:40;;;;;;;11.85;7.82;;;8.60;90.40;;;;;;6214681;23;19997;-81
2022/12/07 09:18:06;;;;;;;10.30;7.03;;;8.60;90.40;;;;;;6215504;23;20004;-81
2022/12/07 09:20:33;;;;;;;8.63;6.60;;;8.70;90.30;;;;;;6214886;23;20028;-82
2022/12/07 09:22:58;;;;;;;13.48;6.88;;;8.80;90.30;;;;;;6215291;23;20330;-82
2022/12/07 09:25:24;;;;;;;9.93;5.95;;;8.80;90.40;;;;;;6214709;23;20005;-82
2022/12/07 09:27:56;;;;;;;9.43;6.43;;;8.90;90.10;;;;;;6213819;23;20058;-82
2022/12/07 09:30:22;;;;;;;10.25;6.60;;;9.00;90.30;;;;;;6213976;23;20009;-83
2022/12/07 09:32:47;;;;;;;10.77;6.30;;;9.00;88.90;;;;;;6214225;23;20028;-82
2022/12/07 09:35:13;;;;;;;12.90;6.68;;;9.10;89.10;;;;;;6214631;23;20643;-81
2022/12/07 09:37:39;;;;;;;15.07;6.15;;;9.10;89.50;;;;;;6188484;23;20004;-80
2022/12/07 09:40:05;;;;;;;11.02;6.75;;;9.10;88.20;;;;;;6213959;23;20005;-81
2022/12/07 09:42:39;;;;;;;18.98;7.30;;;9.20;88.70;;;;;;6214347;23;20001;-83
2022/12/07 09:45:06;;;;;;;10.05;6.90;;;9.20;88.00;;;;;;6214235;23;20001;-81
2022/12/07 09:47:36;;;;;;;9.38;6.60;;;9.10;87.40;;;;;;6214516;23;20062;-81
2022/12/07 09:50:12;;;;;;;10.98;6.53;;;9.20;87.90;;;;;;6214210;23;20004;-82
2022/12/07 09:52:38;;;;;;;9.95;6.22;;;9.20;88.90;;;;;;6216506;23;20008;-81
2022/12/07 09:55:08;;;;;;;12.63;6.38;;;9.40;88.70;;;;;;6217356;23;20000;-81
2022/12/07 09:57:36;;;;;;;9.02;6.32;;;9.50;89.00;;;;;;6217338;23;20024;-81
2022/12/07 10:00:07;;;;;;;8.02;6.00;;;9.60;89.50;;;;;;6216688;23;20320;-80
2022/12/07 10:02:42;;;;;;;8.23;5.80;;;9.70;88.00;;;;;;6217129;23;20012;-82
2022/12/07 10:05:18;;;;;;;8.15;5.95;;;9.80;85.00;;;;;;6216813;23;20005;-82
2022/12/07 10:07:44;;;;;;;6.72;5.10;;;9.80;86.10;;;;;;6217191;23;20009;-82
2022/12/07 10:10:31;;;;;;;7.63;5.45;;;9.90;87.30;;;;;;6216240;23;20000;-83
2022/12/07 10:12:57;;;;;;;11.05;7.78;;;9.90;87.00;;;;;;6216259;23;20004;-82
2022/12/07 10:15:23;;;;;;;7.65;5.95;;;9.90;87.20;;;;;;6217256;23;20000;-81
2022/12/07 10:17:52;;;;;;;11.30;6.15;;;10.00;87.90;;;;;;6216013;23;20070;-81
2022/12/07 10:20:26;;;;;;;8.25;5.35;;;10.20;88.00;;;;;;6216641;23;20012;-83
2022/12/07 10:23:13;;;;;;;8.55;6.00;;;10.30;86.10;;;;;;6189032;23;20005;-82
2022/12/07 10:25:42;;;;;;;6.28;4.53;;;;;;;;;;6216834;23;20005;-81
2022/12/07 10:28:08;;;;;;;8.27;5.20;;;10.40;84.80;;;;;;6215343;23;20055;-81
2022/12/07 10:30:56;;;;;;;12.82;6.20;;;10.70;83.90;;;;;;6216260;23;20004;-82
2022/12/07 10:33:29;;;;;;;7.32;5.47;;;11.00;82.20;;;;;;6216228;23;20071;-81
2022/12/07 10:35:55;;;;;;;8.52;5.65;;;11.20;83.90;;;;;;6217335;23;20396;-81
2022/12/07 10:38:21;;;;;;;6.65;4.30;;;11.30;81.70;;;;;;6216510;23;20015;-81
2022/12/07 10:40:47;;;;;;;6.15;4.22;;;11.50;82.50;;;;;;6217020;23;20443;-81
2022/12/07 10:43:12;;;;;;;9.68;5.15;;;11.40;78.00;;;;;;6216308;23;20082;-82
2022/12/07 10:45:50;;;;;;;6.60;4.30;;;11.20;77.50;;;;;;6216265;23;20001;-82
2022/12/07 10:48:19;;;;;;;5.70;3.60;;;11.40;79.90;;;;;;6216547;23;20004;-81
2022/12/07 10:50:57;;;;;;;7.38;3.90;;;11.60;80.00;;;;;;6216487;23;20307;-81
2022/12/07 10:53:40;;;;;;;5.28;3.85;;;11.90;80.70;;;;;;6216821;23;19996;-82
2022/12/07 10:56:15;;;;;;;5.13;3.80;;;12.30;80.90;;;;;;6216473;23;20000;-81
2022/12/07 10:59:03;;;;;;;5.30;3.35;;;12.60;81.50;;;;;;6215991;23;20009;-82
2022/12/07 11:01:50;;;;;;;4.93;3.70;;;12.90;81.30;;;;;;6216567;23;20446;-82
2022/12/07 11:04:31;;;;;;;5.85;3.83;;;13.30;80.70;;;;;;6215269;23;20004;-81
2022/12/07 11:07:22;;;;;;;5.85;4.13;;;13.50;80.10;;;;;;6216674;23;20035;-81
2022/12/07 11:10:08;;;;;;;7.25;4.20;;;13.80;75.60;;;;;;6215502;23;20424;-82
2022/12/07 11:12:34;;;;;;;5.20;3.53;;;;;;;;;;6216425;23;20012;-81
2022/12/07 11:15:18;;;;;;;6.75;3.83;;;14.00;74.80;;;;;;6216529;23;19997;-82
2022/12/07 11:18:03;;;;;;;6.80;3.63;;;14.00;72.30;;;;;;6213136;23;20405;-82
2022/12/07 11:20:41;;;;;;;6.70;3.17;;;14.00;75.40;;;;;;6190685;23;20067;-85
2022/12/07 11:23:26;;;;;;;7.25;4.53;;;14.20;76.70;;;;;;6215979;23;20000;-84
2022/12/07 11:26:16;;;;;;;4.85;3.50;;;14.30;71.60;;;;;;6190285;23;20107;-84
2022/12/07 11:29:23;;;;;;;5.18;3.97;;;14.40;75.60;;;;;;6216372;23;20012;-84
2022/12/07 11:32:13;;;;;;;8.55;4.47;;;14.60;75.90;;;;;;6216404;23;20467;-83
2022/12/07 11:34:49;;;;;;;9.80;4.47;;;14.60;71.90;;;;;;6216372;23;20008;-84
2022/12/07 11:37:21;;;;;;;6.53;5.00;;;15.00;75.30;;;;;;6216351;23;20004;-84
2022/12/07 11:39:57;;;;;;;6.65;4.80;;;15.90;70.10;;;;;;6189794;23;20366;-84
2022/12/07 11:42:33;;;;;;;6.47;4.10;;;16.70;66.90;;;;;;6216388;23;20007;-84
2022/12/07 11:45:22;;;;;;;5.90;4.40;;;17.50;69.30;;;;;;6216848;23;19997;-84
2022/12/07 11:47:53;;;;;;;6.57;4.00;;;18.70;66.90;;;;;;6216838;23;20000;-83
2022/12/07 11:50:31;;;;;;;7.15;4.25;;;19.30;58.60;;;;;;6216192;23;20007;-84
2022/12/07 11:53:09;;;;;;;5.72;4.20;;;19.50;57.70;;;;;;6216517;23;20288;-84
2022/12/07 11:55:52;;;;;;;8.25;4.28;;;19.60;57.10;;;;;;6215566;23;20001;-84
2022/12/07 11:58:33;;;;;;;6.30;4.75;;;19.80;56.10;;;;;;6215622;23;20016;-84
2022/12/07 12:01:22;;;;;;;9.05;4.40;;;20.60;56.60;;;;;;6187950;23;20371;-84
2022/12/07 14:17:54;;;;;;;5.50;2.38;;;13.80;71.40;;;;;;6127161;22;1477150;-83
2022/12/07 14:20:40;;;;;;;4.00;2.05;;;13.80;71.50;;;;;;6187511;22;20009;-81
2022/12/07 14:23:25;;;;;;;2.97;2.08;;;13.80;72.00;;;;;;6188642;23;20004;-81
2022/12/07 14:25:52;;;;;;;2.70;2.33;;;13.90;72.40;;;;;;6186795;23;20001;-82
2022/12/07 14:28:38;;;;;;;3.17;2.10;;;13.80;72.80;;;;;;6187707;23;20024;-85
2022/12/07 14:31:23;;;;;;;3.28;2.60;;;13.90;73.00;;;;;;6187846;22;20053;-85
2022/12/07 14:33:49;;;;;;;2.85;2.00;;;13.80;71.20;;;;;;6188594;22;20333;-85
2022/12/07 14:36:15;;;;;;;4.18;2.63;;;13.70;72.10;;;;;;6187221;23;20019;-85
2022/12/07 14:38:41;;;;;;;4.72;2.90;;;13.70;72.70;;;;;;6187873;23;20370;-82
2022/12/07 14:43:59;;;;;;;3.10;2.38;;;13.70;73.50;;;;;;6188316;23;20019;-81
2022/12/07 14:46:25;;;;;;;3.03;2.13;;;13.70;73.90;;;;;;6187715;22;20047;-81
2022/12/07 14:48:50;;;;;;;2.75;2.17;;;13.70;74.30;;;;;;6161063;23;20005;-84
2022/12/07 14:51:16;;;;;;;4.25;2.28;;;13.70;74.20;;;;;;6187158;23;20419;-84
2022/12/07 14:53:49;;;;;;;2.78;2.20;;;13.70;74.00;;;;;;6187235;23;20004;-85
2022/12/07 14:56:40;;;;;;;9.40;2.70;;;13.70;74.40;;;;;;6162277;22;20431;-85
2022/12/07 14:59:05;;;;;;;10.88;3.22;;;13.70;74.60;;;;;;6161774;23;20005;-85
2022/12/07 15:01:31;;;;;;;4.60;2.15;;;13.70;74.50;;;;;;6187530;23;20008;-85
2022/12/07 15:03:57;;;;;;;3.55;2.17;;;13.50;73.80;;;;;;6186551;23;19997;-85
2022/12/07 15:06:23;;;;;;;3.47;2.50;;;13.50;74.30;;;;;;6187076;23;20012;-88
2022/12/07 15:08:49;;;;;;;6.50;2.80;;;13.50;74.90;;;;;;6187664;23;20050;-82
2022/12/07 15:11:17;;;;;;;4.72;2.67;;;13.50;75.10;;;;;;6161292;22;20009;-82
2022/12/07 15:16:28;;;;;;;5.45;2.63;;;13.50;76.00;;;;;;6187144;23;20082;-82
2022/12/07 15:18:53;;;;;;;3.85;2.38;;;13.50;76.40;;;;;;6181775;23;20398;-88
2022/12/07 15:21:19;;;;;;;4.03;2.95;;;13.40;76.60;;;;;;6181902;22;20040;-87
2022/12/07 15:23:47;;;;;;;4.15;3.03;;;13.30;77.10;;;;;;6181492;23;20055;-87
2022/12/07 15:26:13;;;;;;;5.10;3.15;;;13.20;77.50;;;;;;6155262;23;20140;-88